createdAt,value
2022-10-13T00:00:11.079Z,81.52
2022-10-13T00:01:20.106Z,81.58
2022-10-13T00:02:11.067Z,81.66
2022-10-13T00:03:11.072Z,81.61
2022-10-13T00:04:11.065Z,81.60
2022-10-13T00:05:11.065Z,81.60
2022-10-13T00:06:11.084Z,81.55
2022-10-13T00:07:11.062Z,81.45
2022-10-13T00:08:11.066Z,81.35
2022-10-13T00:09:11.071Z,81.21
2022-10-13T00:10:11.066Z,81.14
2022-10-13T00:11:14.064Z,81.01
2022-10-13T00:12:11.063Z,80.99
2022-10-13T00:13:11.065Z,80.97
2022-10-13T00:14:11.065Z,80.89
2022-10-13T00:15:11.065Z,80.73
2022-10-13T00:16:11.066Z,80.81
2022-10-13T00:17:11.063Z,80.75
2022-10-13T00:18:11.069Z,80.73
2022-10-13T00:19:14.899Z,80.71
2022-10-13T00:20:11.064Z,80.64
2022-10-13T00:21:11.061Z,80.58
2022-10-13T00:22:11.068Z,80.44
2022-10-13T00:23:11.061Z,80.46
2022-10-13T00:24:12.057Z,80.64
2022-10-13T00:25:11.063Z,80.67
2022-10-13T00:26:11.061Z,80.61
2022-10-13T00:27:11.057Z,80.82
2022-10-13T00:28:11.274Z,80.69
2022-10-13T00:29:11.061Z,80.63
2022-10-13T00:30:11.061Z,80.60
2022-10-13T00:31:20.064Z,80.52
2022-10-13T00:32:11.070Z,80.56
2022-10-13T00:33:11.064Z,80.51
2022-10-13T00:34:11.057Z,80.39
2022-10-13T00:35:11.066Z,80.41
2022-10-13T00:36:11.063Z,80.44
2022-10-13T00:37:11.058Z,80.56
2022-10-13T00:38:11.064Z,80.62
2022-10-13T00:39:11.090Z,80.48
2022-10-13T00:40:11.060Z,80.43
2022-10-13T00:41:11.101Z,80.44
2022-10-13T00:42:12.097Z,80.46
2022-10-13T00:43:17.062Z,80.50
2022-10-13T00:44:19.062Z,80.58
2022-10-13T00:45:19.069Z,80.53
2022-10-13T00:46:11.064Z,80.55
2022-10-13T00:47:11.061Z,80.67
2022-10-13T00:48:11.064Z,80.56
2022-10-13T00:49:12.070Z,80.49
2022-10-13T00:50:14.061Z,80.44
2022-10-13T00:51:11.066Z,80.48
2022-10-13T00:52:11.067Z,80.42
2022-10-13T00:53:11.065Z,80.35
2022-10-13T00:54:11.062Z,80.32
2022-10-13T00:55:11.063Z,80.31
2022-10-13T00:56:11.066Z,80.46
2022-10-13T00:57:11.064Z,80.36
2022-10-13T00:58:12.063Z,80.21
2022-10-13T00:59:21.066Z,80.28
2022-10-13T01:00:11.064Z,80.29
2022-10-13T01:01:11.090Z,80.25
2022-10-13T01:02:11.073Z,80.32
2022-10-13T01:03:11.066Z,80.33
2022-10-13T01:04:11.062Z,80.57
2022-10-13T01:05:11.065Z,80.61
2022-10-13T01:06:11.066Z,80.43
2022-10-13T01:07:11.065Z,80.43
2022-10-13T01:08:11.065Z,80.32
2022-10-13T01:09:11.067Z,80.32
2022-10-13T01:10:11.071Z,80.32
2022-10-13T01:11:19.066Z,80.37
2022-10-13T01:12:19.435Z,80.39
2022-10-13T01:13:18.067Z,80.43
2022-10-13T01:14:19.068Z,80.34
2022-10-13T01:15:19.062Z,80.29
2022-10-13T01:16:19.066Z,80.32
2022-10-13T01:17:19.073Z,80.32
2022-10-13T01:18:19.067Z,80.47
2022-10-13T01:19:19.066Z,80.61
2022-10-13T01:20:19.069Z,80.52
2022-10-13T01:21:19.063Z,80.56
2022-10-13T01:22:19.484Z,80.36
2022-10-13T01:23:21.058Z,80.27
2022-10-13T01:24:23.061Z,80.23
2022-10-13T01:25:21.067Z,80.22
2022-10-13T01:26:21.059Z,80.16
2022-10-13T01:27:18.086Z,80.11
2022-10-13T01:28:19.091Z,80.13
2022-10-13T01:29:19.060Z,80.08
2022-10-13T01:30:15.058Z,80.08
2022-10-13T01:31:19.063Z,80.10
2022-10-13T01:32:19.402Z,80.12
2022-10-13T01:33:19.061Z,80.11
2022-10-13T01:34:19.060Z,80.25
2022-10-13T01:35:16.057Z,80.15
2022-10-13T01:36:20.060Z,80.06
2022-10-13T01:37:19.070Z,80.01
2022-10-13T01:38:18.086Z,80.13
2022-10-13T01:39:19.059Z,80.13
2022-10-13T01:40:21.060Z,80.06
2022-10-13T01:41:21.061Z,80.00
2022-10-13T01:42:21.370Z,79.97
2022-10-13T01:43:18.077Z,79.88
2022-10-13T01:44:19.060Z,79.90
2022-10-13T01:45:12.072Z,80.01
2022-10-13T01:46:16.066Z,79.97
2022-10-13T01:47:11.071Z,80.09
2022-10-13T01:48:11.070Z,80.17
2022-10-13T01:49:14.065Z,80.15
2022-10-13T01:50:11.066Z,80.14
2022-10-13T01:51:17.061Z,80.10
2022-10-13T01:52:12.063Z,80.14
2022-10-13T01:53:11.063Z,80.15
2022-10-13T01:54:11.066Z,80.17
2022-10-13T01:55:11.068Z,80.37
2022-10-13T01:56:11.069Z,80.39
2022-10-13T01:57:19.066Z,80.33
2022-10-13T01:58:12.065Z,80.40
2022-10-13T01:59:14.064Z,80.31
2022-10-13T02:00:14.071Z,80.26
2022-10-13T02:01:19.066Z,80.29
2022-10-13T02:02:21.487Z,80.24
2022-10-13T02:03:20.064Z,80.17
2022-10-13T02:04:19.067Z,80.14
2022-10-13T02:05:19.074Z,80.15
2022-10-13T02:06:19.066Z,80.21
2022-10-13T02:07:19.064Z,80.27
2022-10-13T02:08:21.062Z,80.17
2022-10-13T02:09:21.066Z,80.07
2022-10-13T02:10:19.069Z,80.10
2022-10-13T02:11:18.096Z,80.11
2022-10-13T02:12:20.658Z,80.02
2022-10-13T02:13:11.064Z,79.91
2022-10-13T02:14:23.068Z,79.85
2022-10-13T02:15:16.066Z,79.81
2022-10-13T02:16:11.074Z,79.81
2022-10-13T02:17:11.067Z,79.83
2022-10-13T02:18:11.067Z,79.84
2022-10-13T02:19:12.076Z,79.85
2022-10-13T02:20:11.067Z,79.81
2022-10-13T02:21:11.062Z,79.87
2022-10-13T02:22:11.065Z,79.93
2022-10-13T02:23:14.060Z,79.90
2022-10-13T02:24:11.059Z,80.03
2022-10-13T02:25:11.057Z,79.93
2022-10-13T02:26:11.060Z,79.84
2022-10-13T02:27:11.063Z,79.89
2022-10-13T02:28:11.244Z,79.91
2022-10-13T02:29:11.069Z,79.81
2022-10-13T02:30:15.057Z,79.83
2022-10-13T02:31:11.060Z,79.74
2022-10-13T02:32:11.058Z,79.79
2022-10-13T02:33:11.060Z,79.76
2022-10-13T02:34:11.059Z,79.79
2022-10-13T02:35:11.059Z,79.79
2022-10-13T02:36:11.061Z,79.78
2022-10-13T02:37:11.059Z,79.71
2022-10-13T02:38:11.059Z,79.73
2022-10-13T02:39:11.069Z,79.78
2022-10-13T02:40:11.058Z,79.93
2022-10-13T02:41:11.062Z,80.19
2022-10-13T02:42:11.074Z,80.29
2022-10-13T02:43:11.060Z,80.26
2022-10-13T02:44:11.063Z,80.42
2022-10-13T02:45:11.067Z,80.51
2022-10-13T02:46:11.062Z,80.59
2022-10-13T02:47:11.057Z,80.74
2022-10-13T02:48:11.060Z,80.63
2022-10-13T02:49:11.071Z,80.78
2022-10-13T02:50:11.061Z,80.88
2022-10-13T02:51:11.062Z,80.92
2022-10-13T02:52:11.063Z,80.83
2022-10-13T02:53:11.059Z,80.69
2022-10-13T02:54:11.063Z,80.68
2022-10-13T02:55:11.070Z,80.86
2022-10-13T02:56:11.062Z,81.11
2022-10-13T02:57:11.059Z,81.15
2022-10-13T02:58:11.065Z,81.08
2022-10-13T02:59:11.062Z,80.94
2022-10-13T03:00:11.062Z,80.86
2022-10-13T03:01:14.119Z,80.91
2022-10-13T03:02:11.068Z,80.95
2022-10-13T03:03:11.065Z,80.85
2022-10-13T03:04:11.063Z,80.73
2022-10-13T03:05:11.065Z,80.67
2022-10-13T03:06:11.062Z,80.80
2022-10-13T03:07:11.062Z,80.74
2022-10-13T03:08:11.067Z,80.51
2022-10-13T03:09:11.064Z,80.43
2022-10-13T03:10:11.066Z,80.29
2022-10-13T03:11:11.072Z,80.18
2022-10-13T03:12:11.062Z,80.12
2022-10-13T03:13:11.066Z,80.06
2022-10-13T03:14:11.072Z,79.96
2022-10-13T03:15:11.065Z,79.86
2022-10-13T03:16:11.066Z,79.84
2022-10-13T03:17:13.280Z,79.78
2022-10-13T03:18:11.066Z,80.03
2022-10-13T03:19:11.067Z,80.13
2022-10-13T03:20:11.067Z,80.05
2022-10-13T03:21:11.058Z,79.94
2022-10-13T03:22:11.055Z,79.91
2022-10-13T03:23:12.060Z,79.98
2022-10-13T03:24:11.059Z,79.87
2022-10-13T03:25:11.054Z,79.76
2022-10-13T03:26:11.061Z,79.68
2022-10-13T03:27:11.058Z,79.64
2022-10-13T03:28:11.062Z,79.80
2022-10-13T03:29:16.066Z,79.68
2022-10-13T03:30:11.061Z,79.60
2022-10-13T03:31:12.057Z,79.55
2022-10-13T03:32:11.072Z,79.55
2022-10-13T03:33:11.073Z,79.55
2022-10-13T03:34:13.059Z,79.47
2022-10-13T03:35:11.059Z,79.45
2022-10-13T03:36:11.065Z,79.40
2022-10-13T03:37:11.060Z,79.37
2022-10-13T03:38:11.065Z,79.38
2022-10-13T03:39:11.060Z,79.44
2022-10-13T03:40:11.067Z,79.61
2022-10-13T03:41:14.059Z,79.56
2022-10-13T03:42:11.062Z,79.58
2022-10-13T03:43:11.063Z,79.55
2022-10-13T03:44:12.065Z,79.54
2022-10-13T03:45:11.062Z,79.52
2022-10-13T03:46:13.063Z,79.61
2022-10-13T03:47:11.070Z,79.80
2022-10-13T03:48:11.059Z,79.86
2022-10-13T03:49:11.058Z,79.91
2022-10-13T03:50:11.061Z,80.21
2022-10-13T03:51:11.063Z,80.36
2022-10-13T03:52:11.059Z,80.46
2022-10-13T03:53:11.064Z,80.51
2022-10-13T03:54:12.063Z,80.31
2022-10-13T03:55:11.061Z,80.25
2022-10-13T03:56:15.065Z,80.16
2022-10-13T03:57:11.070Z,80.08
2022-10-13T03:58:11.063Z,80.09
2022-10-13T03:59:12.066Z,79.90
2022-10-13T04:00:14.067Z,79.92
2022-10-13T04:01:11.061Z,79.77
2022-10-13T04:02:11.066Z,79.74
2022-10-13T04:03:11.072Z,79.67
2022-10-13T04:04:12.064Z,79.73
2022-10-13T04:05:11.062Z,79.69
2022-10-13T04:06:11.065Z,79.67
2022-10-13T04:07:11.067Z,79.69
2022-10-13T04:08:11.063Z,79.59
2022-10-13T04:09:11.064Z,79.61
2022-10-13T04:10:11.661Z,79.56
2022-10-13T04:11:12.079Z,79.59
2022-10-13T04:12:11.064Z,79.60
2022-10-13T04:13:11.072Z,79.58
2022-10-13T04:14:11.062Z,79.51
2022-10-13T04:15:11.067Z,79.66
2022-10-13T04:16:21.073Z,79.58
2022-10-13T04:17:11.066Z,79.51
2022-10-13T04:18:11.064Z,79.59
2022-10-13T04:19:11.065Z,79.74
2022-10-13T04:20:11.073Z,79.78
2022-10-13T04:21:11.062Z,79.65
2022-10-13T04:22:11.059Z,79.70
2022-10-13T04:23:11.066Z,79.74
2022-10-13T04:24:12.057Z,80.07
2022-10-13T04:25:11.059Z,80.41
2022-10-13T04:26:15.068Z,80.51
2022-10-13T04:27:11.059Z,80.26
2022-10-13T04:28:11.065Z,80.29
2022-10-13T04:29:11.058Z,80.30
2022-10-13T04:30:13.480Z,80.17
2022-10-13T04:31:11.057Z,80.10
2022-10-13T04:32:11.059Z,80.09
2022-10-13T04:33:11.068Z,80.12
2022-10-13T04:34:11.059Z,80.14
2022-10-13T04:35:11.061Z,80.09
2022-10-13T04:36:11.065Z,80.08
2022-10-13T04:37:11.060Z,80.11
2022-10-13T04:38:11.060Z,80.07
2022-10-13T04:39:11.070Z,80.09
2022-10-13T04:40:11.058Z,80.25
2022-10-13T04:41:11.065Z,80.22
2022-10-13T04:42:11.069Z,80.36
2022-10-13T04:43:11.061Z,80.32
2022-10-13T04:44:11.057Z,80.27
2022-10-13T04:45:11.060Z,80.41
2022-10-13T04:46:15.068Z,80.66
2022-10-13T04:47:11.060Z,80.83
2022-10-13T04:48:11.066Z,80.82
2022-10-13T04:49:11.068Z,80.76
2022-10-13T04:50:11.059Z,81.05
2022-10-13T04:51:11.064Z,81.11
2022-10-13T04:52:11.069Z,81.25
2022-10-13T04:53:14.204Z,81.17
2022-10-13T04:54:13.893Z,81.13
2022-10-13T04:55:11.064Z,81.28
2022-10-13T04:56:12.063Z,81.30
2022-10-13T04:57:11.061Z,81.31
2022-10-13T04:58:11.063Z,81.26
2022-10-13T04:59:11.066Z,81.21
2022-10-13T05:00:11.061Z,81.24
2022-10-13T05:01:15.447Z,81.30
2022-10-13T05:02:13.128Z,81.46
2022-10-13T05:03:11.064Z,81.50
2022-10-13T05:04:11.063Z,81.52
2022-10-13T05:05:11.064Z,81.52
2022-10-13T05:06:15.065Z,81.35
2022-10-13T05:07:18.109Z,81.08
2022-10-13T05:08:13.085Z,81.01
2022-10-13T05:09:14.073Z,80.93
2022-10-13T05:10:11.069Z,80.87
2022-10-13T05:11:11.067Z,80.81
2022-10-13T05:12:11.073Z,80.68
2022-10-13T05:13:11.066Z,80.47
2022-10-13T05:14:11.061Z,80.35
2022-10-13T05:15:11.069Z,80.29
2022-10-13T05:16:14.066Z,80.21
2022-10-13T05:17:11.065Z,80.18
2022-10-13T05:18:11.065Z,80.22
2022-10-13T05:19:11.067Z,80.11
2022-10-13T05:20:11.063Z,80.02
2022-10-13T05:21:11.060Z,80.08
2022-10-13T05:22:11.068Z,79.93
2022-10-13T05:23:11.056Z,79.90
2022-10-13T05:24:11.059Z,79.82
2022-10-13T05:25:11.069Z,79.66
2022-10-13T05:26:12.059Z,79.67
2022-10-13T05:27:14.058Z,79.67
2022-10-13T05:28:11.068Z,79.53
2022-10-13T05:29:11.059Z,79.53
2022-10-13T05:30:11.058Z,79.49
2022-10-13T05:31:15.067Z,79.59
2022-10-13T05:32:11.061Z,79.55
2022-10-13T05:33:11.059Z,79.47
2022-10-13T05:34:11.061Z,79.30
2022-10-13T05:35:11.067Z,79.28
2022-10-13T05:36:11.058Z,79.18
2022-10-13T05:37:11.064Z,79.15
2022-10-13T05:38:11.068Z,79.20
2022-10-13T05:39:11.061Z,79.15
2022-10-13T05:40:11.060Z,79.09
2022-10-13T05:41:11.075Z,79.07
2022-10-13T05:42:11.061Z,79.08
2022-10-13T05:43:11.060Z,79.04
2022-10-13T05:44:11.061Z,78.99
2022-10-13T05:45:11.068Z,78.92
2022-10-13T05:46:11.063Z,78.90
2022-10-13T05:47:11.058Z,78.91
2022-10-13T05:48:11.064Z,78.79
2022-10-13T05:49:11.063Z,78.75
2022-10-13T05:50:11.062Z,78.74
2022-10-13T05:51:15.065Z,78.67
2022-10-13T05:52:11.070Z,78.70
2022-10-13T05:54:25.110Z,78.66
2022-10-13T05:54:57.285Z,78.68
2022-10-13T05:55:11.073Z,78.64
2022-10-13T05:56:15.064Z,78.65
2022-10-13T05:57:17.078Z,78.55
2022-10-13T05:58:11.062Z,78.59
2022-10-13T05:59:12.062Z,78.57
2022-10-13T06:00:14.064Z,78.56
2022-10-13T06:01:13.062Z,78.51
2022-10-13T06:02:12.128Z,78.52
2022-10-13T06:03:15.072Z,78.52
2022-10-13T06:04:17.070Z,78.53
2022-10-13T06:05:15.070Z,78.59
2022-10-13T06:06:11.063Z,78.68
2022-10-13T06:07:11.071Z,78.60
2022-10-13T06:08:11.065Z,78.58
2022-10-13T06:09:11.059Z,78.70
2022-10-13T06:10:11.070Z,78.80
2022-10-13T06:11:11.065Z,78.80
2022-10-13T06:12:11.069Z,78.86
2022-10-13T06:13:11.063Z,78.89
2022-10-13T06:14:11.066Z,78.90
2022-10-13T06:15:11.063Z,78.92
2022-10-13T06:16:11.072Z,78.94
2022-10-13T06:17:11.068Z,78.99
2022-10-13T06:18:11.066Z,79.02
2022-10-13T06:19:11.066Z,79.06
2022-10-13T06:20:11.072Z,79.16
2022-10-13T06:21:11.057Z,79.27
2022-10-13T06:22:11.061Z,79.29
2022-10-13T06:23:11.064Z,79.29
2022-10-13T06:24:11.063Z,79.45
2022-10-13T06:25:11.056Z,79.59
2022-10-13T06:26:11.062Z,79.46
2022-10-13T06:27:11.066Z,79.64
2022-10-13T06:28:11.055Z,79.54
2022-10-13T06:29:11.105Z,79.60
2022-10-13T06:30:11.059Z,79.67
2022-10-13T06:31:11.057Z,79.70
2022-10-13T06:32:11.059Z,79.75
2022-10-13T06:33:11.067Z,79.90
2022-10-13T06:34:11.058Z,79.98
2022-10-13T06:35:11.064Z,80.13
2022-10-13T06:36:11.069Z,80.10
2022-10-13T06:37:11.062Z,80.17
2022-10-13T06:38:11.056Z,80.44
2022-10-13T06:39:11.061Z,80.73
2022-10-13T06:40:11.063Z,80.45
2022-10-13T06:41:11.056Z,80.18
2022-10-13T06:42:11.062Z,80.17
2022-10-13T06:43:11.062Z,80.28
2022-10-13T06:44:11.058Z,80.11
2022-10-13T06:45:11.060Z,79.94
2022-10-13T06:46:11.067Z,79.95
2022-10-13T06:47:11.061Z,79.93
2022-10-13T06:48:11.057Z,79.84
2022-10-13T06:49:11.064Z,79.89
2022-10-13T06:50:11.061Z,79.92
2022-10-13T06:51:11.058Z,79.96
2022-10-13T06:52:11.060Z,80.00
2022-10-13T06:53:11.062Z,79.97
2022-10-13T06:54:11.060Z,80.11
2022-10-13T06:55:11.064Z,80.18
2022-10-13T06:56:11.079Z,80.14
2022-10-13T06:57:11.092Z,80.06
2022-10-13T06:58:11.095Z,80.14
2022-10-13T06:59:11.069Z,80.14
2022-10-13T07:00:11.064Z,80.07
2022-10-13T07:01:13.059Z,79.96
2022-10-13T07:02:11.062Z,79.85
2022-10-13T07:03:11.064Z,79.74
2022-10-13T07:04:11.066Z,79.69
2022-10-13T07:05:11.064Z,79.81
2022-10-13T07:06:11.070Z,79.83
2022-10-13T07:07:11.063Z,80.00
2022-10-13T07:08:11.062Z,80.08
2022-10-13T07:09:11.062Z,79.90
2022-10-13T07:10:11.066Z,79.77
2022-10-13T07:11:15.417Z,79.75
2022-10-13T07:12:11.063Z,79.76
2022-10-13T07:13:11.167Z,79.83
2022-10-13T07:14:11.066Z,79.71
2022-10-13T07:15:11.061Z,79.70
2022-10-13T07:16:11.065Z,79.73
2022-10-13T07:17:11.064Z,80.09
2022-10-13T07:18:11.064Z,80.65
2022-10-13T07:19:15.067Z,80.61
2022-10-13T07:20:11.073Z,80.45
2022-10-13T07:21:11.055Z,80.38
2022-10-13T07:22:11.062Z,80.49
2022-10-13T07:23:11.065Z,80.28
2022-10-13T07:24:11.060Z,80.30
2022-10-13T07:25:11.054Z,80.11
2022-10-13T07:26:14.068Z,80.00
2022-10-13T07:27:11.066Z,79.88
2022-10-13T07:28:11.058Z,79.83
2022-10-13T07:29:11.059Z,79.75
2022-10-13T07:30:11.066Z,79.73
2022-10-13T07:31:11.056Z,79.67
2022-10-13T07:32:11.060Z,79.69
2022-10-13T07:33:11.061Z,79.86
2022-10-13T07:34:11.059Z,79.96
2022-10-13T07:35:11.055Z,79.96
2022-10-13T07:36:11.064Z,80.24
2022-10-13T07:37:11.059Z,80.11
2022-10-13T07:38:11.066Z,80.13
2022-10-13T07:39:11.061Z,80.01
2022-10-13T07:40:11.060Z,80.06
2022-10-13T07:41:11.059Z,79.92
2022-10-13T07:42:11.059Z,80.06
2022-10-13T07:43:11.061Z,80.03
2022-10-13T07:44:11.060Z,79.73
2022-10-13T07:45:11.056Z,79.65
2022-10-13T07:46:11.063Z,79.58
2022-10-13T07:47:11.070Z,79.56
2022-10-13T07:48:11.093Z,79.54
2022-10-13T07:49:13.745Z,79.42
2022-10-13T07:50:13.393Z,79.34
2022-10-13T07:51:12.063Z,79.45
2022-10-13T07:52:11.062Z,79.41
2022-10-13T07:53:11.067Z,79.31
2022-10-13T07:54:11.063Z,79.14
2022-10-13T07:55:11.056Z,79.08
2022-10-13T07:56:12.060Z,78.98
2022-10-13T07:57:11.063Z,79.17
2022-10-13T07:58:11.061Z,79.53
2022-10-13T07:59:11.064Z,79.60
2022-10-13T08:00:11.069Z,79.57
2022-10-13T08:01:11.070Z,79.44
2022-10-13T08:02:11.059Z,79.33
2022-10-13T08:03:11.064Z,79.00
2022-10-13T08:04:11.062Z,78.85
2022-10-13T08:05:11.062Z,78.55
2022-10-13T08:06:11.065Z,78.38
2022-10-13T08:07:11.064Z,78.32
2022-10-13T08:08:11.063Z,78.21
2022-10-13T08:09:11.062Z,78.37
2022-10-13T08:10:11.065Z,78.23
2022-10-13T08:11:13.451Z,78.30
2022-10-13T08:12:13.137Z,78.13
2022-10-13T08:13:11.071Z,78.33
2022-10-13T08:14:11.065Z,78.27
2022-10-13T08:15:11.060Z,78.50
2022-10-13T08:16:11.067Z,78.54
2022-10-13T08:17:11.070Z,78.45
2022-10-13T08:18:11.059Z,78.55
2022-10-13T08:19:11.063Z,78.68
2022-10-13T08:20:11.064Z,78.66
2022-10-13T08:21:39.190Z,78.43
2022-10-13T08:22:13.079Z,78.28
2022-10-13T08:23:11.066Z,78.07
2022-10-13T08:24:14.060Z,77.89
2022-10-13T08:25:11.061Z,77.90
2022-10-13T08:26:15.067Z,77.49
2022-10-13T08:27:13.061Z,77.48
2022-10-13T08:28:19.142Z,77.26
2022-10-13T08:29:22.332Z,77.40
2022-10-13T08:30:13.293Z,77.51
2022-10-13T08:31:11.170Z,77.25
2022-10-13T08:32:11.058Z,77.34
2022-10-13T08:33:11.057Z,76.99
2022-10-13T08:34:11.063Z,76.79
2022-10-13T08:35:11.059Z,76.63
2022-10-13T08:36:11.059Z,76.42
2022-10-13T08:37:15.061Z,76.49
2022-10-13T08:38:11.057Z,76.34
2022-10-13T08:39:11.061Z,76.17
2022-10-13T08:40:16.068Z,76.29
2022-10-13T08:41:19.106Z,76.00
2022-10-13T08:42:15.058Z,75.80
2022-10-13T08:43:15.059Z,75.81
2022-10-13T08:45:10.411Z,75.87
2022-10-13T08:45:41.305Z,75.75
2022-10-13T08:46:13.070Z,75.49
2022-10-13T08:47:18.056Z,75.64
2022-10-13T08:48:19.064Z,75.51
2022-10-13T08:49:11.062Z,75.20
2022-10-13T08:50:19.064Z,75.14
2022-10-13T08:51:12.059Z,75.06
2022-10-13T08:52:21.247Z,74.84
2022-10-13T08:53:21.068Z,74.92
2022-10-13T08:54:13.094Z,74.65
2022-10-13T08:55:16.061Z,74.53
2022-10-13T08:56:17.065Z,74.57
2022-10-13T08:57:11.065Z,74.60
2022-10-13T08:58:21.061Z,74.45
2022-10-13T08:59:15.064Z,74.29
2022-10-13T09:00:12.061Z,74.16
2022-10-13T09:01:17.198Z,73.88
2022-10-13T09:02:21.064Z,73.84
2022-10-13T09:03:19.065Z,73.34
2022-10-13T09:04:20.064Z,72.96
2022-10-13T09:05:18.066Z,72.69
2022-10-13T09:06:16.063Z,72.48
2022-10-13T09:07:21.653Z,72.70
2022-10-13T09:08:19.065Z,72.15
2022-10-13T09:09:11.066Z,71.78
2022-10-13T09:10:11.061Z,71.27
2022-10-13T09:11:11.063Z,70.63
2022-10-13T09:12:12.065Z,70.14
2022-10-13T09:13:11.059Z,69.78
2022-10-13T09:14:11.066Z,69.51
2022-10-13T09:15:11.064Z,69.01
2022-10-13T09:16:11.063Z,68.99
2022-10-13T09:17:19.072Z,68.78
2022-10-13T09:18:11.074Z,68.19
2022-10-13T09:19:21.066Z,67.97
2022-10-13T09:20:19.060Z,67.77
2022-10-13T09:21:19.059Z,67.49
2022-10-13T09:22:19.425Z,67.43
2022-10-13T09:23:19.069Z,66.85
2022-10-13T09:24:17.056Z,66.83
2022-10-13T09:25:18.054Z,66.75
2022-10-13T09:26:15.059Z,66.34
2022-10-13T09:27:17.068Z,66.43
2022-10-13T09:28:20.107Z,65.72
2022-10-13T09:29:19.057Z,65.39
2022-10-13T09:30:19.068Z,65.47
2022-10-13T09:31:15.061Z,64.40
2022-10-13T09:32:19.433Z,64.62
2022-10-13T09:33:16.060Z,64.80
2022-10-13T09:34:19.060Z,64.66
2022-10-13T09:35:19.068Z,64.50
2022-10-13T09:36:13.067Z,64.22
2022-10-13T09:37:18.060Z,64.23
2022-10-13T09:38:19.056Z,63.70
2022-10-13T09:39:14.060Z,63.81
2022-10-13T09:40:19.073Z,63.68
2022-10-13T09:41:16.083Z,63.68
2022-10-13T09:42:19.139Z,63.35
2022-10-13T09:43:19.103Z,63.13
2022-10-13T09:44:19.083Z,63.25
2022-10-13T09:45:16.097Z,63.15
2022-10-13T09:46:18.065Z,63.17
2022-10-13T09:47:19.079Z,63.16
2022-10-13T09:48:19.070Z,63.24
2022-10-13T09:49:19.063Z,63.34
2022-10-13T09:50:19.063Z,63.22
2022-10-13T09:51:21.060Z,63.00
2022-10-13T09:52:16.071Z,62.84
2022-10-13T09:53:21.064Z,62.61
2022-10-13T09:54:19.069Z,62.41
2022-10-13T09:55:19.064Z,62.13
2022-10-13T09:56:20.060Z,62.02
2022-10-13T09:57:19.062Z,61.94
2022-10-13T09:58:20.063Z,61.65
2022-10-13T09:59:19.071Z,61.35
2022-10-13T10:00:21.063Z,61.33
2022-10-13T10:01:17.062Z,61.04
2022-10-13T10:02:22.522Z,61.06
2022-10-13T10:03:19.061Z,60.81
2022-10-13T10:04:17.112Z,60.69
2022-10-13T10:05:18.064Z,60.48
2022-10-13T10:06:14.063Z,60.58
2022-10-13T10:07:17.330Z,60.81
2022-10-13T10:08:28.781Z,61.18
2022-10-13T10:09:21.872Z,61.09
2022-10-13T10:10:19.063Z,61.32
2022-10-13T10:11:15.062Z,61.50
2022-10-13T10:12:15.064Z,61.78
2022-10-13T10:13:12.071Z,61.50
2022-10-13T10:14:19.063Z,60.93
2022-10-13T10:15:21.061Z,60.93
2022-10-13T10:16:19.066Z,60.83
2022-10-13T10:17:21.397Z,60.96
2022-10-13T10:18:16.069Z,60.82
2022-10-13T10:19:21.064Z,60.92
2022-10-13T10:20:19.065Z,61.04
2022-10-13T10:21:19.059Z,61.13
2022-10-13T10:22:19.060Z,61.37
2022-10-13T10:23:19.058Z,61.65
2022-10-13T10:24:19.060Z,61.61
2022-10-13T10:25:19.057Z,61.66
2022-10-13T10:26:22.218Z,61.74
2022-10-13T10:28:23.104Z,62.01
2022-10-13T10:29:17.062Z,61.45
2022-10-13T10:30:15.057Z,60.85
2022-10-13T10:31:19.066Z,60.96
2022-10-13T10:32:19.322Z,60.83
2022-10-13T10:33:16.068Z,60.42
2022-10-13T10:34:19.061Z,60.01
2022-10-13T10:35:20.116Z,59.79
2022-10-13T10:36:19.064Z,59.61
2022-10-13T10:37:21.176Z,59.14
2022-10-13T10:38:21.070Z,58.49
2022-10-13T10:39:21.063Z,58.00
2022-10-13T10:40:19.069Z,57.54
2022-10-13T10:41:19.060Z,57.19
2022-10-13T10:42:19.390Z,57.01
2022-10-13T10:43:19.061Z,57.49
2022-10-13T10:44:20.068Z,57.41
2022-10-13T10:45:16.072Z,57.54
2022-10-13T10:46:21.061Z,57.75
2022-10-13T10:47:22.527Z,57.71
2022-10-13T10:48:19.067Z,57.61
2022-10-13T10:49:18.067Z,57.14
2022-10-13T10:50:14.070Z,57.13
2022-10-13T10:51:11.062Z,57.04
2022-10-13T10:52:16.061Z,56.86
2022-10-13T10:53:19.065Z,56.81
2022-10-13T10:54:19.063Z,56.79
2022-10-13T10:55:21.061Z,57.07
2022-10-13T10:56:19.062Z,57.12
2022-10-13T10:57:18.327Z,57.25
2022-10-13T10:58:21.071Z,57.39
2022-10-13T10:59:21.066Z,57.55
2022-10-13T11:00:17.117Z,57.88
2022-10-13T11:01:21.112Z,58.14
2022-10-13T11:02:19.426Z,58.11
2022-10-13T11:03:19.065Z,58.30
2022-10-13T11:04:19.066Z,58.44
2022-10-13T11:05:11.066Z,58.41
2022-10-13T11:06:21.060Z,58.33
2022-10-13T11:07:18.066Z,58.39
2022-10-13T11:08:19.075Z,58.45
2022-10-13T11:09:12.071Z,58.44
2022-10-13T11:10:18.079Z,58.43
2022-10-13T11:11:23.345Z,58.27
2022-10-13T11:12:25.302Z,57.98
2022-10-13T11:13:17.071Z,57.90
2022-10-13T11:14:19.068Z,57.85
2022-10-13T11:15:15.065Z,57.87
2022-10-13T11:16:19.068Z,57.87
2022-10-13T11:17:17.073Z,57.75
2022-10-13T11:18:21.946Z,57.74
2022-10-13T11:19:21.064Z,57.82
2022-10-13T11:20:21.071Z,58.03
2022-10-13T11:21:11.059Z,58.27
2022-10-13T11:22:14.061Z,58.24
2022-10-13T11:23:19.061Z,57.52
2022-10-13T11:24:19.057Z,57.74
2022-10-13T11:25:19.058Z,57.73
2022-10-13T11:26:19.066Z,57.56
2022-10-13T11:27:19.059Z,57.57
2022-10-13T11:28:19.130Z,57.82
2022-10-13T11:29:18.059Z,57.99
2022-10-13T11:30:19.108Z,58.13
2022-10-13T11:31:19.068Z,58.16
2022-10-13T11:32:19.401Z,58.24
2022-10-13T11:33:23.060Z,58.35
2022-10-13T11:34:19.057Z,58.33
2022-10-13T11:35:19.059Z,58.47
2022-10-13T11:36:19.071Z,58.57
2022-10-13T11:37:17.062Z,58.64
2022-10-13T11:38:21.111Z,58.52
2022-10-13T11:39:19.128Z,58.76
2022-10-13T11:40:19.060Z,58.78
2022-10-13T11:41:21.069Z,58.71
2022-10-13T11:42:21.521Z,58.23
2022-10-13T11:43:21.060Z,58.14
2022-10-13T11:44:19.149Z,57.91
2022-10-13T11:45:19.062Z,58.59
2022-10-13T11:46:21.068Z,58.16
2022-10-13T11:47:19.375Z,57.53
2022-10-13T11:48:19.099Z,56.93
2022-10-13T11:49:19.082Z,56.46
2022-10-13T11:50:19.064Z,56.05
2022-10-13T11:51:19.069Z,55.89
2022-10-13T11:52:19.373Z,55.60
2022-10-13T11:53:16.060Z,55.63
2022-10-13T11:54:19.067Z,55.58
2022-10-13T11:55:18.065Z,56.03
2022-10-13T11:56:21.065Z,55.74
2022-10-13T11:57:19.064Z,55.74
2022-10-13T11:58:16.075Z,55.79
2022-10-13T11:59:19.065Z,56.29
2022-10-13T12:00:16.062Z,56.42
2022-10-13T12:01:14.068Z,56.64
2022-10-13T12:02:18.952Z,57.01
2022-10-13T12:03:19.148Z,57.13
2022-10-13T12:04:15.066Z,57.01
2022-10-13T12:05:19.065Z,56.80
2022-10-13T12:06:21.067Z,57.26
2022-10-13T12:07:12.064Z,56.87
2022-10-13T12:08:11.065Z,56.72
2022-10-13T12:09:18.066Z,56.72
2022-10-13T12:10:19.068Z,56.57
2022-10-13T12:11:21.069Z,56.76
2022-10-13T12:12:15.065Z,56.80
2022-10-13T12:13:19.065Z,57.18
2022-10-13T12:14:19.067Z,57.11
2022-10-13T12:15:19.066Z,57.52
2022-10-13T12:16:13.068Z,57.15
2022-10-13T12:17:23.339Z,57.32
2022-10-13T12:18:21.068Z,56.74
2022-10-13T12:19:19.068Z,56.87
2022-10-13T12:20:21.069Z,56.67
2022-10-13T12:21:17.060Z,56.70
2022-10-13T12:22:13.058Z,56.32
2022-10-13T12:23:16.059Z,56.67
2022-10-13T12:24:13.069Z,56.21
2022-10-13T12:25:18.057Z,56.47
2022-10-13T12:26:19.069Z,56.13
2022-10-13T12:27:20.393Z,56.22
2022-10-13T12:28:19.178Z,56.18
2022-10-13T12:29:15.062Z,56.55
2022-10-13T12:30:19.059Z,56.56
2022-10-13T12:31:19.072Z,56.57
2022-10-13T12:32:21.062Z,56.60
2022-10-13T12:33:20.059Z,56.44
2022-10-13T12:34:21.069Z,56.52
2022-10-13T12:35:22.059Z,56.33
2022-10-13T12:36:18.074Z,56.16
2022-10-13T12:37:18.340Z,56.23
2022-10-13T12:38:17.060Z,56.42
2022-10-13T12:39:13.069Z,56.82
2022-10-13T12:40:15.070Z,56.71
2022-10-13T12:41:11.064Z,56.75
2022-10-13T12:42:12.061Z,56.74
2022-10-13T12:43:15.064Z,56.74
2022-10-13T12:44:14.064Z,56.79
2022-10-13T12:45:18.061Z,56.80
2022-10-13T12:46:13.062Z,56.98
2022-10-13T12:47:19.379Z,57.04
2022-10-13T12:48:19.064Z,57.32
2022-10-13T12:50:19.069Z,57.51
2022-10-13T12:51:18.067Z,57.85
2022-10-13T12:52:20.315Z,57.56
2022-10-13T12:53:16.066Z,57.37
2022-10-13T12:54:18.062Z,57.17